Time;durP1;ratioP1;P1;durP2;ratioP2;P2;SDS_P1;SDS_P2;PMS_P1;PMS_P2;Temp;Humidity;BMP_temperature;BMP_pressure;BME280_temperature;BME280_humidity;BME280_pressure;Samples;Min_cycle;Max_cycle;Signal;HPM_P1;HPM_P2
2021/07/26 00:01:04;;;;;;;2.63;1.40;;;18.20;99.90;;;;;;4911622;29;20036;-82
2021/07/26 00:03:30;;;;;;;2.22;1.00;;;18.10;99.90;;;;;;4896076;29;20036;-82
2021/07/26 00:05:57;;;;;;;2.83;1.33;;;18.10;99.90;;;;;;4911748;29;20043;-82
2021/07/26 00:08:23;;;;;;;5.18;1.38;;;18.10;99.90;;;;;;4911487;29;20430;-81
2021/07/26 00:11:01;;;;;;;5.85;1.73;;;17.90;99.90;;;;;;4928458;29;20076;-81
2021/07/26 00:13:26;;;;;;;2.75;1.52;;;17.80;99.90;;;;;;4911743;29;20060;-81
2021/07/26 00:15:52;;;;;;;2.92;1.20;;;17.70;99.90;;;;;;4905263;29;20036;-82
2021/07/26 00:18:18;;;;;;;2.63;1.45;;;17.60;99.90;;;;;;4918212;29;20084;-81
2021/07/26 00:20:43;;;;;;;2.60;1.17;;;17.60;99.90;;;;;;4918301;29;20042;-81
2021/07/26 00:23:09;;;;;;;3.03;1.52;;;17.50;99.90;;;;;;4933929;29;20031;-81
2021/07/26 00:25:34;;;;;;;3.47;1.33;;;17.50;99.90;;;;;;4918189;29;20099;-82
2021/07/26 00:28:00;;;;;;;2.55;1.17;;;17.40;99.90;;;;;;4916576;29;20086;-82
2021/07/26 00:30:26;;;;;;;2.58;1.17;;;17.40;99.90;;;;;;4897401;29;20104;-82
2021/07/26 00:32:52;;;;;;;3.15;1.45;;;17.40;99.90;;;;;;4899319;29;20039;-82
2021/07/26 00:35:18;;;;;;;2.47;1.20;;;17.30;99.90;;;;;;4899174;29;20060;-82
2021/07/26 00:37:43;;;;;;;1.90;1.10;;;17.30;99.90;;;;;;4915620;29;20040;-82
2021/07/26 00:40:09;;;;;;;2.35;1.30;;;17.30;99.90;;;;;;4933419;29;20543;-82
2021/07/26 00:42:36;;;;;;;3.33;1.40;;;17.30;99.90;;;;;;4917945;29;20046;-82
2021/07/26 00:45:03;;;;;;;9.48;1.30;;;17.30;99.90;;;;;;4917831;29;20036;-82
2021/07/26 00:47:28;;;;;;;2.67;1.30;;;17.30;99.90;;;;;;4950285;29;20572;-82
2021/07/26 00:49:54;;;;;;;2.70;1.55;;;17.20;99.90;;;;;;4933245;29;20067;-82
2021/07/26 00:52:20;;;;;;;3.40;1.45;;;17.10;99.90;;;;;;4914139;29;20071;-82
2021/07/26 00:54:46;;;;;;;2.45;1.00;;;17.10;99.90;;;;;;4914083;29;20524;-81
2021/07/26 00:57:12;;;;;;;2.60;1.35;;;17.00;99.90;;;;;;4929982;29;20100;-82
2021/07/26 00:59:39;;;;;;;2.17;0.90;;;17.00;99.90;;;;;;4914023;29;20043;-82
2021/07/26 01:02:05;;;;;;;3.38;1.00;;;17.10;99.90;;;;;;4914126;29;20127;-81
2021/07/26 01:04:30;;;;;;;2.33;1.10;;;17.10;99.90;;;;;;4913927;29;20036;-81
2021/07/26 01:06:57;;;;;;;3.80;1.35;;;17.10;99.90;;;;;;4914146;29;20151;-81
2021/07/26 01:09:23;;;;;;;3.38;1.42;;;17.00;99.90;;;;;;4929649;29;20396;-81
2021/07/26 01:11:49;;;;;;;2.10;1.25;;;16.90;99.90;;;;;;4913758;29;20067;-81
2021/07/26 01:14:15;;;;;;;2.33;1.40;;;16.80;99.90;;;;;;4913903;29;20031;-82
2021/07/26 01:16:42;;;;;;;2.10;1.00;;;16.80;99.90;;;;;;4899126;29;20033;-82
2021/07/26 01:19:07;;;;;;;2.50;1.38;;;16.80;99.90;;;;;;4910842;29;20044;-82
2021/07/26 01:21:33;;;;;;;3.53;1.52;;;16.70;99.90;;;;;;4880271;29;20128;-81
2021/07/26 01:24:00;;;;;;;2.90;1.35;;;16.70;99.90;;;;;;4879604;29;20032;-81
2021/07/26 01:26:27;;;;;;;2.78;1.55;;;16.80;99.90;;;;;;4878747;29;20036;-82
2021/07/26 01:28:56;;;;;;;1.80;1.10;;;16.70;99.90;;;;;;4895024;29;20037;-82
2021/07/26 01:31:23;;;;;;;3.17;1.57;;;16.70;99.90;;;;;;4879325;29;20048;-82
2021/07/26 01:33:49;;;;;;;2.65;1.42;;;16.60;99.90;;;;;;4910416;29;20072;-82
2021/07/26 01:36:16;;;;;;;3.15;1.35;;;16.70;99.90;;;;;;4900439;29;20032;-82
2021/07/26 01:38:45;;;;;;;2.30;1.25;;;16.60;99.90;;;;;;4913476;29;20040;-82
2021/07/26 01:41:17;;;;;;;3.15;1.65;;;16.60;99.90;;;;;;4913089;29;20504;-81
2021/07/26 01:46:29;;;;;;;2.78;1.35;;;16.80;99.90;;;;;;4930108;29;20044;-81
2021/07/26 01:49:05;;;;;;;3.55;1.52;;;16.80;99.90;;;;;;4921600;23;20527;-81
2021/07/26 01:51:43;;;;;;;2.42;1.30;;;16.70;99.90;;;;;;4929240;29;20131;-82
2021/07/26 01:54:09;;;;;;;2.20;1.15;;;16.70;99.90;;;;;;4929400;29;20032;-81
2021/07/26 01:56:36;;;;;;;4.97;1.67;;;16.70;99.90;;;;;;4929283;29;20056;-82
2021/07/26 01:59:02;;;;;;;4.70;1.88;;;16.70;99.90;;;;;;4913597;29;20123;-81
2021/07/26 02:01:28;;;;;;;3.88;1.83;;;16.70;99.90;;;;;;4929234;29;20040;-81
2021/07/26 02:03:55;;;;;;;4.55;1.90;;;16.70;99.90;;;;;;4929543;29;20027;-81
2021/07/26 02:06:21;;;;;;;3.80;1.58;;;16.60;99.90;;;;;;4929028;29;20040;-82
2021/07/26 02:08:46;;;;;;;3.40;1.63;;;16.60;99.90;;;;;;4929130;29;20254;-82
2021/07/26 02:11:12;;;;;;;2.75;1.67;;;16.60;99.90;;;;;;4928789;29;20147;-82
2021/07/26 02:13:39;;;;;;;2.83;1.50;;;16.60;99.90;;;;;;4929085;29;20056;-81
2021/07/26 02:16:10;;;;;;;4.57;1.25;;;16.60;99.90;;;;;;4937953;29;20032;-82
2021/07/26 02:18:35;;;;;;;3.85;1.40;;;16.60;99.90;;;;;;4932351;29;20042;-82
2021/07/26 02:21:01;;;;;;;2.58;1.48;;;16.60;99.90;;;;;;4931813;29;20027;-82
2021/07/26 02:23:27;;;;;;;2.53;1.40;;;16.70;99.90;;;;;;4947781;29;20036;-82
2021/07/26 02:25:52;;;;;;;3.03;1.77;;;16.70;99.90;;;;;;4947469;29;20055;-81
2021/07/26 02:28:18;;;;;;;3.90;1.70;;;16.70;99.90;;;;;;4931795;29;20031;-82
2021/07/26 02:30:43;;;;;;;4.78;2.20;;;16.60;99.90;;;;;;4931524;29;20050;-81
2021/07/26 02:33:09;;;;;;;3.63;1.55;;;16.50;99.90;;;;;;4947471;29;20036;-83
2021/07/26 02:35:35;;;;;;;4.70;1.50;;;16.50;99.90;;;;;;4946851;29;20027;-81
2021/07/26 02:38:01;;;;;;;2.72;1.45;;;16.50;99.90;;;;;;4912101;29;20028;-82
2021/07/26 02:40:28;;;;;;;3.47;1.65;;;16.50;99.90;;;;;;4896666;29;20123;-82
2021/07/26 02:42:55;;;;;;;2.65;1.48;;;16.60;99.90;;;;;;4912310;29;20515;-82
2021/07/26 02:45:21;;;;;;;2.63;1.52;;;16.50;99.90;;;;;;4912087;29;20036;-82
2021/07/26 02:47:46;;;;;;;2.30;1.48;;;16.50;99.90;;;;;;4912172;29;20055;-82
2021/07/26 02:50:12;;;;;;;2.95;1.60;;;16.60;99.90;;;;;;4912254;29;20485;-82
2021/07/26 02:52:38;;;;;;;2.78;1.50;;;16.50;99.90;;;;;;4912324;29;20047;-82
2021/07/26 02:55:05;;;;;;;3.35;1.40;;;16.60;99.90;;;;;;4912212;29;20095;-82
2021/07/26 02:57:32;;;;;;;2.65;1.30;;;16.60;99.90;;;;;;4911922;29;20060;-82
2021/07/26 02:59:58;;;;;;;4.45;1.50;;;16.70;99.90;;;;;;4910772;29;20036;-82
2021/07/26 03:02:24;;;;;;;4.63;1.38;;;16.70;99.90;;;;;;4910181;29;20103;-82
2021/07/26 03:04:49;;;;;;;3.38;1.50;;;16.80;99.90;;;;;;4893367;29;20474;-82
2021/07/26 03:07:15;;;;;;;3.78;1.63;;;16.80;99.90;;;;;;4908908;29;20126;-82
2021/07/26 03:09:41;;;;;;;3.40;1.70;;;16.80;99.90;;;;;;4893282;29;20032;-82
2021/07/26 03:12:06;;;;;;;5.65;1.75;;;16.80;99.90;;;;;;4893093;29;20046;-83
2021/07/26 03:14:32;;;;;;;3.50;1.65;;;16.80;99.90;;;;;;4893299;29;20054;-82
2021/07/26 03:17:03;;;;;;;3.72;1.88;;;16.70;99.90;;;;;;4924940;29;20035;-82
2021/07/26 03:19:29;;;;;;;3.50;2.13;;;16.70;99.90;;;;;;4931123;29;20055;-82
2021/07/26 03:22:33;;;;;;;2.88;1.70;;;16.70;99.90;;;;;;4931005;29;20039;-82
2021/07/26 03:24:59;;;;;;;3.55;1.60;;;16.60;99.90;;;;;;4930806;29;20043;-82
2021/07/26 03:27:25;;;;;;;4.43;1.45;;;16.70;99.90;;;;;;4946669;29;20031;-82
2021/07/26 03:29:50;;;;;;;3.13;1.75;;;16.70;99.90;;;;;;4929464;29;20038;-82
2021/07/26 03:32:16;;;;;;;2.80;1.38;;;16.70;99.90;;;;;;4896304;29;20040;-81
2021/07/26 03:34:42;;;;;;;3.17;1.40;;;16.70;99.90;;;;;;4927681;29;20127;-82
2021/07/26 03:37:07;;;;;;;3.05;1.02;;;16.60;99.90;;;;;;4896183;29;20060;-82
2021/07/26 03:39:33;;;;;;;2.25;0.98;;;16.70;99.90;;;;;;4927535;29;20160;-82
2021/07/26 03:41:58;;;;;;;2.90;1.38;;;16.60;99.90;;;;;;4927475;29;20059;-82
2021/07/26 03:44:24;;;;;;;4.13;0.98;;;16.70;99.90;;;;;;4927492;29;20099;-82
2021/07/26 03:46:50;;;;;;;2.90;1.20;;;16.60;99.90;;;;;;4927353;29;20103;-82
2021/07/26 03:49:15;;;;;;;2.20;1.10;;;16.60;99.90;;;;;;4927454;29;20059;-82
2021/07/26 03:51:41;;;;;;;2.58;1.40;;;16.60;99.90;;;;;;4930868;29;20075;-82
2021/07/26 03:54:06;;;;;;;3.40;1.13;;;16.70;99.90;;;;;;4931228;29;20024;-81
2021/07/26 03:56:32;;;;;;;3.58;1.45;;;16.60;99.90;;;;;;4931206;29;20433;-82
2021/07/26 03:58:57;;;;;;;2.60;1.38;;;16.70;99.90;;;;;;4931070;29;20052;-82
2021/07/26 04:01:23;;;;;;;4.97;1.27;;;16.70;99.90;;;;;;4931039;29;20035;-82
2021/07/26 04:03:50;;;;;;;3.13;1.52;;;16.70;99.90;;;;;;4931059;29;20460;-82
2021/07/26 04:06:16;;;;;;;5.22;1.30;;;16.70;99.90;;;;;;4930988;29;20075;-82
2021/07/26 04:08:46;;;;;;;3.53;1.38;;;16.70;99.90;;;;;;4930772;29;20036;-82
2021/07/26 04:11:27;;;;;;;3.25;1.40;;;16.80;99.90;;;;;;4930870;29;20072;-82
2021/07/26 04:14:00;;;;;;;3.00;1.60;;;16.80;99.90;;;;;;4930331;29;20036;-82
2021/07/26 04:16:25;;;;;;;3.92;1.50;;;16.70;99.90;;;;;;4933125;29;20043;-82
2021/07/26 04:18:52;;;;;;;5.38;1.77;;;16.80;99.90;;;;;;4950289;29;20035;-82
2021/07/26 04:21:17;;;;;;;2.58;1.30;;;16.80;99.90;;;;;;4900487;29;20568;-82
2021/07/26 04:23:43;;;;;;;3.38;1.83;;;16.80;99.90;;;;;;4929926;29;20052;-82
2021/07/26 04:26:09;;;;;;;3.88;2.08;;;16.80;99.90;;;;;;4915655;29;20064;-82
2021/07/26 04:28:36;;;;;;;3.90;1.77;;;16.80;99.90;;;;;;4915200;29;20028;-82
2021/07/26 04:31:02;;;;;;;6.65;2.10;;;16.90;99.90;;;;;;4914805;29;20083;-81
2021/07/26 04:33:27;;;;;;;2.58;1.40;;;16.90;99.90;;;;;;4914041;29;20028;-82
2021/07/26 04:35:53;;;;;;;2.67;1.95;;;16.90;99.90;;;;;;4914061;29;20068;-82
2021/07/26 04:38:18;;;;;;;4.63;1.48;;;17.00;99.90;;;;;;4898242;29;20033;-82
2021/07/26 04:40:44;;;;;;;3.38;1.70;;;16.90;99.90;;;;;;4898339;29;20060;-82
2021/07/26 04:43:10;;;;;;;4.90;1.48;;;17.00;99.90;;;;;;4898234;29;20040;-82
2021/07/26 04:45:35;;;;;;;3.00;1.58;;;17.00;99.90;;;;;;4913622;29;20465;-82
2021/07/26 04:48:01;;;;;;;5.47;1.85;;;17.00;99.90;;;;;;4897921;29;20063;-82
2021/07/26 04:50:27;;;;;;;2.60;1.60;;;17.00;99.90;;;;;;4898127;29;20028;-83
2021/07/26 04:52:52;;;;;;;3.97;2.17;;;17.10;99.90;;;;;;4914426;29;20044;-82
2021/07/26 04:55:18;;;;;;;2.35;1.23;;;17.10;99.90;;;;;;4898165;29;20036;-82
2021/07/26 04:57:43;;;;;;;4.30;1.50;;;17.10;99.90;;;;;;4895514;29;20040;-82
2021/07/26 05:00:09;;;;;;;3.30;1.52;;;17.20;99.90;;;;;;4928999;29;20046;-82
2021/07/26 05:02:35;;;;;;;3.90;1.85;;;17.10;99.90;;;;;;4929454;29;20032;-82
2021/07/26 05:05:01;;;;;;;2.65;1.55;;;17.10;99.90;;;;;;4929234;29;20052;-82
2021/07/26 05:07:27;;;;;;;3.58;1.48;;;17.20;99.90;;;;;;4929172;29;20047;-82
2021/07/26 05:09:53;;;;;;;2.90;1.58;;;17.20;99.90;;;;;;4929008;29;20033;-81
2021/07/26 05:12:18;;;;;;;2.70;1.80;;;17.20;99.90;;;;;;4909358;29;20167;-81
2021/07/26 05:14:48;;;;;;;3.75;1.33;;;17.20;99.90;;;;;;4912813;29;20036;-81
2021/07/26 05:17:23;;;;;;;;;;;17.30;99.90;;;;;;4948706;29;20028;-82
2021/07/26 05:19:48;;;;;;;5.07;1.17;;;17.30;99.90;;;;;;4947814;29;19970;-82
2021/07/26 05:22:14;;;;;;;5.60;1.83;;;17.30;99.90;;;;;;4932205;29;20032;-82
2021/07/26 05:24:40;;;;;;;3.15;1.25;;;17.30;99.90;;;;;;4921105;29;20401;-82
2021/07/26 05:27:09;;;;;;;2.30;1.10;;;17.30;99.90;;;;;;4903686;29;20032;-81
2021/07/26 05:29:35;;;;;;;4.57;1.80;;;17.40;99.90;;;;;;4943967;29;20032;-82
2021/07/26 05:32:01;;;;;;;3.47;1.50;;;17.40;99.90;;;;;;4944228;29;20040;-82
2021/07/26 05:34:27;;;;;;;6.47;2.03;;;17.50;99.90;;;;;;4928592;29;20127;-82
2021/07/26 05:36:53;;;;;;;3.00;1.48;;;17.50;99.90;;;;;;4920728;29;20043;-81
2021/07/26 05:39:19;;;;;;;5.60;1.98;;;17.60;99.90;;;;;;4928448;29;20087;-82
2021/07/26 05:41:45;;;;;;;3.35;1.58;;;17.60;99.90;;;;;;4896657;29;20032;-81
2021/07/26 05:44:12;;;;;;;2.60;1.40;;;17.60;99.90;;;;;;4897085;29;20035;-83
2021/07/26 05:46:37;;;;;;;2.80;1.13;;;17.60;99.90;;;;;;4913018;29;20035;-82
2021/07/26 05:49:03;;;;;;;3.92;1.33;;;17.70;99.90;;;;;;4912516;29;20051;-82
2021/07/26 05:51:29;;;;;;;2.20;1.25;;;17.70;99.90;;;;;;4912762;29;20051;-82
2021/07/26 05:53:54;;;;;;;2.88;1.60;;;17.80;99.90;;;;;;4912924;29;20027;-82
2021/07/26 05:56:20;;;;;;;4.28;1.60;;;17.90;99.90;;;;;;4896608;29;20540;-81
2021/07/26 05:58:46;;;;;;;3.10;1.10;;;18.00;99.90;;;;;;4912528;29;20043;-82
2021/07/26 06:03:44;;;;;;;4.53;1.80;;;18.20;99.90;;;;;;4912267;29;20064;-82
2021/07/26 06:06:10;;;;;;;2.58;1.52;;;18.30;99.90;;;;;;4912619;29;20067;-82
2021/07/26 06:08:35;;;;;;;2.95;1.15;;;18.40;99.90;;;;;;4928141;29;20040;-83
2021/07/26 06:11:02;;;;;;;3.67;1.40;;;18.50;99.90;;;;;;4912070;29;20044;-83
2021/07/26 06:13:28;;;;;;;3.45;1.30;;;18.50;99.90;;;;;;4912176;29;20036;-83
2021/07/26 06:15:54;;;;;;;2.40;1.25;;;18.80;99.90;;;;;;4912158;29;20131;-83
2021/07/26 06:18:20;;;;;;;3.97;1.10;;;19.00;99.90;;;;;;4912352;29;20404;-83
2021/07/26 06:20:45;;;;;;;3.97;1.17;;;19.10;99.90;;;;;;4928138;29;20405;-84
2021/07/26 06:23:11;;;;;;;3.65;1.38;;;19.30;99.90;;;;;;4928188;29;20033;-83
2021/07/26 06:25:37;;;;;;;2.92;1.13;;;19.30;99.90;;;;;;4911761;29;20051;-83
2021/07/26 06:28:04;;;;;;;4.53;1.73;;;19.30;99.90;;;;;;4927973;29;20032;-83
2021/07/26 06:30:29;;;;;;;3.15;1.30;;;19.20;99.90;;;;;;4927983;29;20797;-83
2021/07/26 06:32:55;;;;;;;3.30;1.10;;;19.40;99.90;;;;;;4912143;29;20095;-83
2021/07/26 06:35:21;;;;;;;3.25;1.55;;;19.60;99.90;;;;;;4912041;29;20095;-84
2021/07/26 06:37:47;;;;;;;3.83;1.58;;;19.50;99.90;;;;;;4927784;29;20094;-83
2021/07/26 06:40:13;;;;;;;2.72;1.52;;;19.60;99.90;;;;;;4911543;29;20085;-83
2021/07/26 06:42:39;;;;;;;3.25;1.50;;;20.00;99.90;;;;;;4912135;29;20092;-86
2021/07/26 06:45:08;;;;;;;3.70;1.00;;;20.40;99.90;;;;;;4896403;29;20036;-83
2021/07/26 06:47:34;;;;;;;;;;;20.70;99.90;;;;;;4911798;29;20052;-84
2021/07/26 06:50:00;;;;;;;2.05;1.17;;;20.70;99.90;;;;;;4911695;29;19943;-85
2021/07/26 06:52:26;;;;;;;3.08;1.10;;;20.80;99.90;;;;;;4896343;29;20047;-83
2021/07/26 06:54:51;;;;;;;1.90;0.93;;;21.10;99.90;;;;;;4911677;29;20056;-85
2021/07/26 06:57:17;;;;;;;4.30;1.63;;;21.00;99.90;;;;;;4911462;29;20038;-82
2021/07/26 06:59:42;;;;;;;2.17;0.90;;;20.40;99.90;;;;;;4911583;29;20115;-83
2021/07/26 07:02:08;;;;;;;4.30;1.60;;;20.30;99.90;;;;;;4896064;29;20068;-84
2021/07/26 07:04:33;;;;;;;1.77;0.88;;;19.90;99.90;;;;;;4896065;29;20028;-83
2021/07/26 07:06:59;;;;;;;3.10;1.63;;;20.00;99.90;;;;;;4911780;29;20043;-83
2021/07/26 07:09:25;;;;;;;2.30;1.17;;;20.10;99.90;;;;;;4911169;29;20053;-83
2021/07/26 07:11:51;;;;;;;2.33;0.88;;;20.50;99.90;;;;;;4896009;29;20043;-84
2021/07/26 07:14:17;;;;;;;2.28;0.70;;;20.80;99.90;;;;;;4895635;29;20444;-84
2021/07/26 07:16:42;;;;;;;2.55;1.27;;;21.00;99.90;;;;;;4909650;29;20035;-84
2021/07/26 07:19:08;;;;;;;3.50;1.42;;;20.70;99.90;;;;;;4930443;29;20035;-83
2021/07/26 07:21:34;;;;;;;4.18;1.50;;;20.90;99.90;;;;;;4930369;29;20032;-84
2021/07/26 07:24:02;;;;;;;2.38;0.98;;;21.30;99.90;;;;;;4946379;29;20047;-85
2021/07/26 07:26:29;;;;;;;3.13;0.98;;;21.40;99.90;;;;;;4933946;29;20496;-86
2021/07/26 07:28:55;;;;;;;2.78;1.00;;;21.40;99.90;;;;;;4934553;29;20408;-84
2021/07/26 07:31:28;;;;;;;3.80;2.28;;;21.00;99.90;;;;;;4934269;29;20043;-84
2021/07/26 07:33:56;;;;;;;4.70;2.63;;;20.50;99.90;;;;;;4934293;29;20048;-84
2021/07/26 07:36:22;;;;;;;4.15;1.65;;;20.20;99.90;;;;;;4927658;29;20039;-85
2021/07/26 07:38:49;;;;;;;4.30;2.20;;;20.50;99.90;;;;;;4915097;29;20398;-84
2021/07/26 07:41:14;;;;;;;5.40;1.75;;;20.20;99.90;;;;;;4915268;29;20047;-84
2021/07/26 07:43:40;;;;;;;3.08;1.73;;;20.30;99.90;;;;;;4899761;29;20032;-84
2021/07/26 07:46:26;;;;;;;3.63;1.95;;;20.40;99.90;;;;;;4899436;29;20043;-84
2021/07/26 07:48:51;;;;;;;4.88;2.67;;;20.40;99.90;;;;;;4857434;29;20085;-84
2021/07/26 07:51:21;;;;;;;5.55;3.13;;;20.30;99.90;;;;;;4872957;29;20058;-83
2021/07/26 07:53:48;;;;;;;;;;;20.50;99.90;;;;;;4873809;29;20097;-83
2021/07/26 07:56:13;;;;;;;3.20;2.10;;;20.30;99.90;;;;;;4873218;29;20041;-84
2021/07/26 07:58:39;;;;;;;6.13;2.90;;;20.50;99.90;;;;;;4873206;29;20038;-83
2021/07/26 08:01:05;;;;;;;3.53;2.92;;;20.60;99.90;;;;;;4872907;29;20049;-85
2021/07/26 08:03:31;;;;;;;5.15;3.40;;;21.00;99.90;;;;;;4872991;29;20091;-84
2021/07/26 08:06:00;;;;;;;5.05;2.80;;;21.10;99.90;;;;;;4873035;29;20074;-82
2021/07/26 08:08:25;;;;;;;4.07;2.75;;;20.90;99.90;;;;;;4873031;29;20037;-85
2021/07/26 08:10:51;;;;;;;3.00;2.03;;;20.90;99.90;;;;;;4872769;29;20075;-84
2021/07/26 08:13:23;;;;;;;3.78;2.90;;;21.50;99.90;;;;;;4873056;29;20135;-84
2021/07/26 08:15:51;;;;;;;4.15;3.55;;;21.50;99.90;;;;;;4879835;29;20059;-85
2021/07/26 08:18:18;;;;;;;3.10;1.88;;;21.70;99.90;;;;;;4876169;29;20116;-83
2021/07/26 08:20:43;;;;;;;3.10;1.98;;;21.90;99.90;;;;;;4891339;29;20109;-84
2021/07/26 08:23:09;;;;;;;3.72;2.50;;;21.90;99.90;;;;;;4860521;29;20204;-84
2021/07/26 08:25:34;;;;;;;3.05;2.10;;;21.50;99.90;;;;;;4884438;29;20111;-83
2021/07/26 08:28:00;;;;;;;3.17;2.25;;;21.30;99.90;;;;;;4933033;29;20028;-84
2021/07/26 08:30:29;;;;;;;2.50;1.67;;;21.30;99.90;;;;;;4933050;29;20130;-83
2021/07/26 08:32:54;;;;;;;2.45;1.50;;;21.20;99.90;;;;;;4933009;29;20077;-85
2021/07/26 08:35:21;;;;;;;3.75;2.10;;;21.10;99.90;;;;;;4948926;29;20035;-84
2021/07/26 08:37:47;;;;;;;5.10;1.70;;;21.10;99.90;;;;;;4915235;29;20042;-84
2021/07/26 08:40:13;;;;;;;2.55;1.05;;;21.30;99.90;;;;;;4913924;29;20032;-83
2021/07/26 08:42:40;;;;;;;2.60;1.92;;;21.40;99.90;;;;;;4913959;29;20040;-83
2021/07/26 08:45:08;;;;;;;3.25;1.10;;;21.30;99.90;;;;;;4914220;29;20412;-83
2021/07/26 08:47:34;;;;;;;2.03;1.00;;;21.40;99.90;;;;;;4929309;29;20076;-84
2021/07/26 08:50:04;;;;;;;3.90;1.90;;;22.10;99.90;;;;;;4913693;29;20511;-83
2021/07/26 08:52:37;;;;;;;2.30;1.00;;;21.70;99.90;;;;;;4913737;29;20044;-83
2021/07/26 08:55:04;;;;;;;1.95;1.27;;;22.00;99.90;;;;;;4913914;29;20516;-84
2021/07/26 08:57:30;;;;;;;2.63;1.13;;;22.10;99.90;;;;;;4913566;29;20044;-84
2021/07/26 08:59:56;;;;;;;3.15;1.27;;;22.00;99.90;;;;;;4913806;29;20028;-84
2021/07/26 09:02:22;;;;;;;2.72;0.93;;;22.00;99.90;;;;;;4913765;29;20474;-84
2021/07/26 09:04:47;;;;;;;3.33;1.40;;;22.20;99.90;;;;;;4929593;29;20043;-84
2021/07/26 09:07:14;;;;;;;2.30;1.17;;;22.00;99.90;;;;;;4913616;29;20032;-84
2021/07/26 09:09:47;;;;;;;2.95;0.80;;;22.20;99.90;;;;;;4913338;29;20043;-84
2021/07/26 09:12:30;;;;;;;2.60;0.90;;;22.20;99.90;;;;;;4913545;29;20044;-83
2021/07/26 09:14:57;;;;;;;1.70;0.90;;;22.10;99.90;;;;;;4913629;29;20064;-84
2021/07/26 09:17:23;;;;;;;3.03;1.38;;;22.10;99.90;;;;;;4894443;29;20038;-84
2021/07/26 09:19:59;;;;;;;1.77;0.60;;;22.00;99.90;;;;;;4910035;29;20119;-84
2021/07/26 09:22:33;;;;;;;1.30;0.60;;;22.50;99.90;;;;;;4894511;29;20033;-84
2021/07/26 09:25:19;;;;;;;2.25;1.20;;;22.30;99.90;;;;;;4894668;29;20070;-84
2021/07/26 09:27:58;;;;;;;3.25;1.05;;;22.10;99.90;;;;;;4909971;29;20536;-84
2021/07/26 09:30:26;;;;;;;3.05;1.00;;;22.20;99.90;;;;;;4910073;29;20037;-84
2021/07/26 09:32:52;;;;;;;1.50;0.98;;;22.60;99.90;;;;;;4894193;29;20197;-85
2021/07/26 09:35:22;;;;;;;1.70;1.00;;;22.80;99.90;;;;;;4910078;29;20446;-85
2021/07/26 09:37:56;;;;;;;3.10;1.35;;;23.20;99.90;;;;;;4927831;29;20052;-84
2021/07/26 09:40:24;;;;;;;1.98;1.00;;;23.70;99.90;;;;;;4928708;29;20032;-86
2021/07/26 09:42:51;;;;;;;2.75;1.58;;;23.80;99.90;;;;;;4928577;29;20032;-84
2021/07/26 09:45:26;;;;;;;1.75;0.70;;;23.20;99.90;;;;;;4928646;29;20040;-86
2021/07/26 09:48:09;;;;;;;3.85;1.15;;;23.30;99.90;;;;;;4929040;29;20080;-86
2021/07/26 09:50:46;;;;;;;1.88;0.80;;;23.30;99.90;;;;;;4928496;29;20067;-84
2021/07/26 09:53:23;;;;;;;1.55;0.77;;;23.10;99.90;;;;;;4912707;29;20044;-86
2021/07/26 09:55:53;;;;;;;2.33;0.70;;;23.50;99.90;;;;;;4913039;29;20055;-86
2021/07/26 09:58:34;;;;;;;2.88;0.65;;;23.10;99.90;;;;;;4928590;29;20035;-85
2021/07/26 10:01:00;;;;;;;1.80;0.60;;;23.50;99.90;;;;;;4928636;29;20040;-86
2021/07/26 10:03:27;;;;;;;1.60;0.63;;;23.90;99.90;;;;;;4912817;29;20036;-85
2021/07/26 10:05:54;;;;;;;2.05;0.70;;;24.20;99.90;;;;;;4928312;29;20032;-85
2021/07/26 10:08:21;;;;;;;1.30;0.73;;;24.30;99.90;;;;;;4912665;29;20036;-84
2021/07/26 10:10:47;;;;;;;1.70;0.60;;;23.40;99.90;;;;;;4912744;29;20032;-85
2021/07/26 10:13:13;;;;;;;1.70;0.70;;;23.70;99.90;;;;;;4928748;29;20035;-85
2021/07/26 10:15:39;;;;;;;1.13;0.60;;;23.60;99.90;;;;;;4933956;29;20063;-85
2021/07/26 10:18:05;;;;;;;1.27;0.60;;;23.90;99.90;;;;;;4947039;29;20036;-84
2021/07/26 10:20:59;;;;;;;1.85;0.47;;;24.30;99.90;;;;;;4931417;29;20046;-86
2021/07/26 10:23:37;;;;;;;1.35;0.55;;;25.10;99.90;;;;;;4947131;29;20063;-87
2021/07/26 10:26:05;;;;;;;0.93;0.50;;;24.70;99.90;;;;;;4915632;29;20095;-85
2021/07/26 10:28:35;;;;;;;1.70;0.60;;;24.50;99.90;;;;;;4931429;29;20126;-85
2021/07/26 10:31:01;;;;;;;1.33;0.50;;;24.70;99.90;;;;;;4931190;29;20040;-85
2021/07/26 10:33:29;;;;;;;1.13;0.60;;;24.50;99.90;;;;;;4931194;29;20086;-85
2021/07/26 10:35:55;;;;;;;2.08;0.47;;;24.00;99.90;;;;;;4928118;29;20120;-87
2021/07/26 10:38:43;;;;;;;1.23;0.60;;;23.80;99.90;;;;;;4927925;29;20481;-85
2021/07/26 10:41:09;;;;;;;1.40;0.55;;;23.60;99.90;;;;;;4927924;29;20028;-85
2021/07/26 10:43:59;;;;;;;1.00;0.50;;;24.70;99.90;;;;;;4912207;29;20047;-85
2021/07/26 10:46:25;;;;;;;2.55;0.60;;;25.20;99.90;;;;;;4911958;29;20046;-87
2021/07/26 10:48:52;;;;;;;1.35;0.50;;;25.50;99.90;;;;;;4927748;29;20052;-86
2021/07/26 10:51:38;;;;;;;1.50;0.60;;;25.50;99.90;;;;;;4911915;29;20047;-85
2021/07/26 10:54:05;;;;;;;1.10;0.60;;;24.60;99.90;;;;;;4911854;29;20036;-86
2021/07/26 10:57:02;;;;;;;1.08;0.45;;;24.30;99.90;;;;;;4911980;29;20028;-86
2021/07/26 10:59:29;;;;;;;1.38;0.50;;;24.10;99.90;;;;;;4926686;29;20067;-85
2021/07/26 11:02:02;;;;;;;2.92;0.60;;;23.80;99.90;;;;;;4911900;29;20031;-85
2021/07/26 11:04:37;;;;;;;1.30;0.55;;;23.30;99.90;;;;;;4911963;29;20032;-88
2021/07/26 11:07:10;;;;;;;1.08;0.43;;;23.30;99.90;;;;;;4911984;29;20028;-85
2021/07/26 11:09:44;;;;;;;1.52;0.60;;;23.40;99.90;;;;;;4911673;29;20080;-85
2021/07/26 11:12:10;;;;;;;2.20;0.60;;;23.40;99.90;;;;;;4912035;29;20047;-85
2021/07/26 11:14:36;;;;;;;2.17;0.90;;;23.40;99.90;;;;;;4896157;29;20032;-85
2021/07/26 11:17:12;;;;;;;1.17;0.40;;;23.60;99.90;;;;;;4927321;29;20067;-86
2021/07/26 11:19:41;;;;;;;0.90;0.40;;;23.70;99.90;;;;;;4927574;29;20036;-90
2021/07/26 11:22:25;;;;;;;0.82;0.40;;;24.50;99.90;;;;;;4912101;29;20028;-88
2021/07/26 11:24:55;;;;;;;1.00;0.40;;;25.20;99.90;;;;;;4911841;29;20040;-87
2021/07/26 11:27:32;;;;;;;1.10;0.50;;;24.30;99.90;;;;;;4911874;29;20040;-84
2021/07/26 11:29:59;;;;;;;3.20;0.60;;;24.20;99.90;;;;;;4911856;29;20112;-85
2021/07/26 11:32:26;;;;;;;1.50;0.52;;;23.80;99.90;;;;;;4911814;29;20070;-88
2021/07/26 11:35:02;;;;;;;1.20;0.40;;;23.80;99.90;;;;;;4911802;29;20046;-88
2021/07/26 11:37:35;;;;;;;0.93;0.30;;;24.00;99.90;;;;;;4911907;29;20507;-87
2021/07/26 11:40:06;;;;;;;0.85;0.30;;;24.50;99.90;;;;;;4911319;29;20063;-88
2021/07/26 11:42:39;;;;;;;2.15;0.40;;;24.40;99.90;;;;;;4911794;29;20035;-86
2021/07/26 11:45:08;;;;;;;0.90;0.40;;;24.50;99.90;;;;;;4911596;29;20040;-86
2021/07/26 11:47:44;;;;;;;0.50;0.22;;;24.10;99.90;;;;;;4911278;29;20056;-87
2021/07/26 11:50:12;;;;;;;1.25;0.40;;;24.30;99.90;;;;;;4924488;29;20044;-87
2021/07/26 11:52:38;;;;;;;0.68;0.30;;;24.30;99.90;;;;;;4909481;29;20060;-90
2021/07/26 11:55:12;;;;;;;1.02;0.30;;;24.90;99.90;;;;;;4911968;29;20032;-86
2021/07/26 11:57:55;;;;;;;1.70;0.30;;;25.80;99.90;;;;;;4911888;29;20032;-88
2021/07/26 12:00:47;;;;;;;0.93;0.30;;;25.50;99.90;;;;;;4911703;29;20035;-87
2021/07/26 12:03:18;;;;;;;0.73;0.30;;;25.80;99.90;;;;;;4911985;29;20497;-87
2021/07/26 12:05:43;;;;;;;0.65;0.30;;;25.60;99.90;;;;;;4912108;29;20033;-87
2021/07/26 12:08:14;;;;;;;0.90;0.30;;;25.40;99.90;;;;;;4912701;29;20088;-87
2021/07/26 12:10:41;;;;;;;0.75;0.30;;;25.00;99.90;;;;;;4911779;29;20068;-88
2021/07/26 12:13:08;;;;;;;0.85;0.30;;;25.20;99.90;;;;;;4915648;29;20161;-88
2021/07/26 12:15:36;;;;;;;1.05;0.50;;;25.10;99.90;;;;;;4920588;29;20095;-87
2021/07/26 12:18:11;;;;;;;2.15;0.40;;;25.20;99.90;;;;;;4934142;29;20032;-87
2021/07/26 12:21:00;;;;;;;1.10;0.40;;;24.70;99.90;;;;;;4934363;29;20434;-87
2021/07/26 12:23:31;;;;;;;1.00;0.40;;;24.90;99.90;;;;;;4927548;29;20043;-88
2021/07/26 12:25:59;;;;;;;0.88;0.30;;;24.80;99.90;;;;;;4934105;29;20032;-89
2021/07/26 12:28:45;;;;;;;1.45;0.40;;;24.70;99.90;;;;;;4934202;29;20035;-89
2021/07/26 12:31:34;;;;;;;1.63;0.30;;;25.10;99.90;;;;;;4934305;29;20071;-95
2021/07/26 12:34:13;;;;;;;;;;;25.00;99.90;;;;;;4934867;29;20043;-89
2021/07/26 12:36:39;;;;;;;2.10;0.30;;;25.60;99.90;;;;;;4941337;29;19911;-87
2021/07/26 12:39:10;;;;;;;2.40;0.40;;;25.90;99.90;;;;;;4931929;29;20056;-88
2021/07/26 12:41:38;;;;;;;0.73;0.30;;;25.90;99.90;;;;;;4932163;29;20064;-92
2021/07/26 12:46:34;;;;;;;1.00;0.40;;;26.40;99.90;;;;;;4911725;29;20048;-91
2021/07/26 12:49:05;;;;;;;1.55;0.30;;;26.00;99.90;;;;;;4953827;23;20063;-89
2021/07/26 12:51:31;;;;;;;1.70;0.32;;;25.60;99.90;;;;;;4941049;29;20066;-93
2021/07/26 12:53:57;;;;;;;1.23;0.32;;;25.60;99.90;;;;;;4939383;29;20067;-89
2021/07/26 12:56:23;;;;;;;0.80;0.40;;;25.70;99.90;;;;;;4939832;29;20046;-93
2021/07/26 12:58:48;;;;;;;0.75;0.30;;;25.90;99.90;;;;;;4940695;29;20031;-93
2021/07/26 13:01:14;;;;;;;0.90;0.40;;;26.60;99.90;;;;;;4938607;29;20023;-93